Time;durP1;ratioP1;P1;durP2;ratioP2;P2;SDS_P1;SDS_P2;PMS_P1;PMS_P2;Temp;Humidity;BMP_temperature;BMP_pressure;BME280_temperature;BME280_humidity;BME280_pressure;Samples;Min_cycle;Max_cycle;Signal;HPM_P1;HPM_P2
2022/12/16 00:00:45;;;;;;;;;56.50;44.50;;;;;3.85;55.16;98078.84;6289416;27;97342;-64
2022/12/16 00:03:50;;;;;;;;;53.00;43.50;;;;;3.99;54.76;98076.22;6288070;27;96623;-63
2022/12/16 00:06:54;;;;;;;;;54.80;44.80;;;;;3.90;55.34;98083.56;6289182;27;96293;-63
2022/12/16 00:09:57;;;;;;;;;56.50;45.00;;;;;3.98;55.22;98085.22;6289550;27;96231;-63
2022/12/16 00:13:02;;;;;;;;;53.00;42.75;;;;;3.96;55.16;98079.28;6287784;27;96426;-63
2022/12/16 00:16:13;;;;;;;;;58.25;44.25;;;;;3.92;55.29;98086.84;6273188;27;96284;-63
2022/12/16 00:19:17;;;;;;;;;56.00;43.60;;;;;3.91;55.43;98093.19;6288622;27;96519;-62
2022/12/16 00:22:21;;;;;;;;;55.50;45.00;;;;;3.96;55.56;98092.63;6288956;27;96685;-62
2022/12/16 00:25:24;;;;;;;;;56.60;45.80;;;;;3.97;55.22;98094.25;6272258;27;97050;-62
2022/12/16 00:28:29;;;;;;;;;54.00;44.00;;;;;3.89;55.53;98074.75;6286303;27;96266;-62
2022/12/16 00:31:32;;;;;;;;;57.40;46.40;;;;;4.07;55.47;98076.84;6290081;27;96308;-63
2022/12/16 00:34:36;;;;;;;;;57.80;46.00;;;;;4.22;55.23;98090.03;6289272;27;96272;-62
2022/12/16 00:37:39;;;;;;;;;57.00;44.00;;;;;4.19;55.24;98072.59;6288885;27;96735;-62
2022/12/16 00:40:43;;;;;;;;;53.00;43.00;;;;;4.14;55.34;98077.69;6289452;27;96321;-62
2022/12/16 00:43:48;;;;;;;;;59.00;46.60;;;;;4.15;55.28;98081.19;6286769;27;96583;-63
2022/12/16 00:46:51;;;;;;;;;60.20;46.60;;;;;4.24;55.26;98072.81;6289249;27;96303;-63
2022/12/16 00:49:57;;;;;;;;;62.25;46.75;;;;;4.22;55.31;98082.84;6289994;27;96330;-62
2022/12/16 00:53:00;;;;;;;;;59.75;47.25;;;;;4.18;55.70;98072.78;6289012;27;96190;-63
2022/12/16 00:56:04;;;;;;;;;55.00;43.00;;;;;4.08;55.63;98067.84;6289121;27;97161;-63
2022/12/16 00:59:09;;;;;;;;;61.00;46.00;;;;;4.10;55.90;98075.63;6281334;27;96768;-63
2022/12/16 01:02:13;;;;;;;;;59.75;45.25;;;;;4.10;55.65;98086.31;6289079;27;96658;-64
2022/12/16 01:05:19;;;;;;;;;57.40;45.40;;;;;4.08;56.24;98075.84;6287786;27;96200;-63
2022/12/16 01:08:22;;;;;;;;;57.80;46.00;;;;;4.16;56.01;98070.31;6289646;27;96248;-63
2022/12/16 01:11:26;;;;;;;;;61.00;47.40;;;;;4.25;55.99;98053.09;6289114;27;96282;-63
2022/12/16 01:14:30;;;;;;;;;58.60;46.00;;;;;4.26;55.75;98052.06;6274260;27;96270;-63
2022/12/16 01:17:34;;;;;;;;;61.20;45.80;;;;;4.28;56.09;98025.19;6265616;27;96521;-63
2022/12/16 01:20:37;;;;;;;;;58.00;45.00;;;;;4.28;55.58;98025.19;6268889;27;96803;-63
2022/12/16 01:23:41;;;;;;;;;60.00;46.00;;;;;4.27;55.81;98027.03;6291498;27;97428;-62
2022/12/16 01:26:44;;;;;;;;;56.60;44.00;;;;;4.29;55.92;98021.50;6285796;27;96469;-63
2022/12/16 01:29:49;;;;;;;;;57.25;45.50;;;;;4.26;55.93;98024.56;6292827;27;96214;-63
2022/12/16 01:32:52;;;;;;;;;60.50;46.75;;;;;4.28;56.02;98026.03;6293102;27;96336;-65
2022/12/16 01:35:59;;;;;;;;;60.75;46.50;;;;;4.22;55.69;98007.31;6294111;27;96409;-63
2022/12/16 01:39:03;;;;;;;;;55.00;44.00;;;;;4.28;55.72;98002.00;6287811;27;96497;-62
2022/12/16 01:42:12;;;;;;;;;55.60;44.60;;;;;4.39;55.94;98000.59;6292801;27;96220;-62
2022/12/16 01:45:31;;;;;;;;;57.00;45.00;;;;;4.42;55.76;97996.69;6292560;27;97461;-63
2022/12/16 01:48:41;;;;;;;;;57.00;45.00;;;;;4.26;55.74;97982.69;6292329;27;97965;-63
2022/12/16 01:51:46;;;;;;;;;60.80;47.00;;;;;4.33;56.21;97988.06;6296054;27;97030;-63
2022/12/16 01:55:02;;;;;;;;;59.60;46.00;;;;;4.24;56.14;97987.44;6289962;27;96550;-63
2022/12/16 01:58:09;;;;;;;;;58.40;46.00;;;;;4.29;56.04;97976.16;6288054;27;96392;-63
2022/12/16 02:01:16;;;;;;;;;59.00;45.80;;;;;4.32;56.07;97968.56;6295146;27;96294;-63
2022/12/16 02:04:19;;;;;;;;;57.00;45.00;;;;;4.29;56.26;97960.97;6294349;27;96187;-63
2022/12/16 02:07:23;;;;;;;;;55.60;44.00;;;;;4.27;56.44;97954.19;6293764;27;96311;-63
2022/12/16 02:10:38;;;;;;;;;53.00;44.00;;;;;4.23;56.51;97966.28;6284349;27;96959;-64
2022/12/16 02:14:01;;;;;;;;;58.40;45.40;;;;;4.00;56.74;97963.19;6279267;27;96921;-62
2022/12/16 02:17:14;;;;;;;;;60.00;45.40;;;;;3.99;57.07;97975.69;6292040;27;96681;-63
2022/12/16 02:20:52;;;;;;;;;53.40;43.60;;;;;3.86;57.33;97957.00;6305530;27;97459;-62
2022/12/16 02:24:20;;;;;;;;;55.60;44.00;;;;;3.90;57.41;97963.56;6280753;27;96273;-64
2022/12/16 02:27:48;;;;;;;;;56.40;44.00;;;;;4.03;57.25;97958.25;6292063;27;96453;-63
2022/12/16 02:31:06;;;;;;;;;57.40;44.40;;;;;4.11;57.22;97962.56;6292476;27;96487;-63
2022/12/16 02:34:19;;;;;;;;;56.20;44.00;;;;;4.16;57.09;97963.59;6291828;27;96389;-64
2022/12/16 02:37:38;;;;;;;;;56.25;44.25;;;;;4.12;56.99;97950.88;6292683;27;97971;-63
2022/12/16 02:40:45;;;;;;;;;56.40;44.00;;;;;4.13;57.11;97942.69;6291117;27;96903;-64
2022/12/16 02:43:55;;;;;;;;;55.00;43.00;;;;;4.18;56.85;97937.56;6279791;27;96250;-62
2022/12/16 02:46:59;;;;;;;;;54.50;44.50;;;;;4.19;56.83;97927.72;6289182;27;99855;-63
2022/12/16 02:50:04;;;;;;;;;57.00;44.00;;;;;4.23;56.58;97911.09;6283570;27;96432;-63
2022/12/16 02:53:09;;;;;;;;;54.20;42.60;;;;;4.15;57.03;97905.16;6288984;27;96380;-63
2022/12/16 02:56:28;;;;;;;;;56.75;45.50;;;;;4.20;57.11;97892.81;6278536;27;97003;-64
2022/12/16 02:59:42;;;;;;;;;56.25;45.00;;;;;4.30;56.77;97900.44;6289991;27;96489;-63
2022/12/16 03:02:54;;;;;;;;;59.00;46.00;;;;;4.33;56.75;97895.50;6291313;27;96519;-63
2022/12/16 03:06:01;;;;;;;;;58.00;46.00;;;;;4.29;56.62;97898.78;6280605;27;96313;-63
2022/12/16 03:09:09;;;;;;;;;54.40;44.00;;;;;4.27;56.66;97893.66;6289788;27;96565;-63
2022/12/16 03:12:16;;;;;;;;;54.00;43.00;;;;;4.21;56.48;97874.97;6291003;27;97199;-63
2022/12/16 03:15:24;;;;;;;;;59.50;45.50;;;;;4.34;56.54;97888.31;6271531;27;96688;-63
2022/12/16 03:18:30;;;;;;;;;53.00;43.00;;;;;4.33;56.52;97886.66;6289252;27;96649;-63
2022/12/16 03:21:38;;;;;;;;;56.00;44.00;;;;;4.34;56.42;97886.47;6291134;27;97148;-64
2022/12/16 03:24:42;;;;;;;;;53.00;43.60;;;;;4.42;56.65;97887.28;6290997;27;96229;-63
2022/12/16 03:27:55;;;;;;;;;53.00;42.60;;;;;4.34;56.64;97896.31;6288793;27;96904;-63
2022/12/16 03:31:08;;;;;;;;;52.20;41.40;;;;;4.38;56.47;97878.03;6282292;27;98509;-63
2022/12/16 03:34:18;;;;;;;;;56.25;44.00;;;;;4.41;56.40;97865.09;6289320;27;96568;-63
2022/12/16 03:37:27;;;;;;;;;54.40;43.00;;;;;4.47;56.24;97864.28;6290372;27;96226;-64
2022/12/16 03:40:33;;;;;;;;;53.60;43.00;;;;;4.51;56.14;97848.66;6289927;27;96338;-63
2022/12/16 03:43:37;;;;;;;;;57.33;43.67;;;;;4.57;56.13;97845.16;6290014;27;96460;-63
2022/12/16 03:46:41;;;;;;;;;54.20;43.00;;;;;4.58;56.08;97844.13;6271087;27;96278;-63
2022/12/16 03:49:45;;;;;;;;;54.75;43.50;;;;;4.60;55.92;97831.38;6289516;27;96701;-63
2022/12/16 03:52:49;;;;;;;;;54.40;44.00;;;;;4.62;55.97;97832.84;6289966;27;96280;-63
2022/12/16 03:55:53;;;;;;;;;57.00;46.00;;;;;4.61;55.87;97820.50;6289812;27;97054;-63
2022/12/16 03:58:57;;;;;;;;;57.80;45.40;;;;;4.64;55.63;97805.94;6289636;27;96310;-64
2022/12/16 04:02:01;;;;;;;;;55.40;43.00;;;;;4.68;55.48;97789.28;6289806;27;97311;-62
2022/12/16 04:05:06;;;;;;;;;52.20;41.20;;;;;4.68;55.77;97788.47;6294466;27;96378;-62
2022/12/16 04:08:10;;;;;;;;;56.60;42.00;;;;;4.63;55.35;97797.13;6298668;27;96155;-62
2022/12/16 04:24:43;;;;;;;;;50.00;41.00;;;;;4.46;56.65;97763.91;6288528;27;96261;-61
2022/12/16 04:27:47;;;;;;;;;49.00;40.00;;;;;4.44;56.57;97768.63;6289966;27;96345;-63
2022/12/16 04:30:51;;;;;;;;;50.00;39.00;;;;;4.41;56.68;97773.56;6286995;27;96474;-63
